Terminal Aerodrome Forecast
Issued by NWS

Home | Current Version | Previous Version | Text Only | Print | Product List | Glossary On
Versions: 1 2 3 4 5 6 7 8 9 10 11 12 13 14 15 16 17 18 19 20 21 22 23 24 25 26 27 28 29 30 31 32 33 34 35 36 37 38 39 40 41 42 43 44 45 46 47
000
FTAK31 PAFA 310540
TAFAQT
TAF
PAQT 310540Z 3106/0106 19014KT P6SM -RASN SCT030 BKN040
     FM311200 22008KT 5SM -SHSN BR SCT015 BKN035 OVC050
     FM311800 22015KT P6SM VCSH BKN035=

USA.gov is the U.S. government's official web portal to all federal, state and local government web resources and services.